createdAt,value
2018-09-06T00:01:52.920Z,23.17
2018-09-06T00:04:21.112Z,26.03
2018-09-06T00:06:49.406Z,21.70
2018-09-06T00:09:17.626Z,23.87
2018-09-06T00:11:45.851Z,24.13
2018-09-06T00:14:14.076Z,25.27
2018-09-06T00:16:42.316Z,26.73
2018-09-06T00:19:10.628Z,26.70
2018-09-06T00:21:38.863Z,26.27
2018-09-06T00:24:07.068Z,27.57
2018-09-06T00:26:35.269Z,23.23
2018-09-06T00:29:03.504Z,23.27
2018-09-06T00:31:31.767Z,24.33
2018-09-06T00:33:59.960Z,25.97
2018-09-06T00:36:28.276Z,24.37
2018-09-06T00:38:56.613Z,28.87
2018-09-06T00:41:24.837Z,24.57
2018-09-06T00:43:53.084Z,28.83
2018-09-06T00:46:21.285Z,24.30
2018-09-06T00:48:49.657Z,25.47
2018-09-06T00:51:17.867Z,27.47
2018-09-06T00:53:46.069Z,27.87
2018-09-06T00:56:14.291Z,25.77
2018-09-06T00:58:42.523Z,27.40
2018-09-06T01:01:10.738Z,27.00
2018-09-06T01:03:38.970Z,28.97
2018-09-06T01:06:07.512Z,30.00
2018-09-06T01:08:35.765Z,31.03
2018-09-06T01:11:03.983Z,28.13
2018-09-06T01:13:32.219Z,27.37
2018-09-06T01:16:00.451Z,27.80
2018-09-06T01:18:28.660Z,26.83
2018-09-06T01:20:56.913Z,24.30
2018-09-06T01:23:25.135Z,26.93
2018-09-06T01:25:53.659Z,26.70
2018-09-06T01:28:21.883Z,28.23
2018-09-06T01:30:50.998Z,25.33
2018-09-06T01:33:19.200Z,27.53
2018-09-06T01:35:52.811Z,28.80
2018-09-06T01:38:21.062Z,26.53
2018-09-06T01:40:49.259Z,25.67
2018-09-06T01:43:17.464Z,25.23
2018-09-06T01:45:45.812Z,26.87
2018-09-06T01:48:14.008Z,26.93
2018-09-06T01:50:42.293Z,22.87
2018-09-06T01:53:10.525Z,27.43
2018-09-06T01:55:38.720Z,28.23
2018-09-06T01:58:06.941Z,31.33
2018-09-06T02:00:35.204Z,29.07
2018-09-06T02:03:03.430Z,31.00
2018-09-06T02:05:37.041Z,30.90
2018-09-06T02:08:06.856Z,25.87
2018-09-06T02:10:35.606Z,29.37
2018-09-06T02:13:03.824Z,28.67
2018-09-06T02:15:32.447Z,26.93
2018-09-06T02:18:00.655Z,27.03
2018-09-06T02:20:28.851Z,28.07
2018-09-06T02:22:57.068Z,26.33
2018-09-06T02:25:25.292Z,29.33
2018-09-06T02:27:53.519Z,30.33
2018-09-06T02:30:21.724Z,26.60
2018-09-06T02:32:49.939Z,28.13
2018-09-06T02:35:18.180Z,23.53
2018-09-06T02:37:46.380Z,25.60
2018-09-06T02:40:19.976Z,29.77
2018-09-06T02:42:48.188Z,30.00
2018-09-06T02:45:16.448Z,27.73
2018-09-06T02:47:50.257Z,27.40
2018-09-06T02:50:23.788Z,25.90
2018-09-06T02:52:52.775Z,25.17
2018-09-06T02:55:20.977Z,26.63
2018-09-06T02:57:49.552Z,30.60
2018-09-06T03:00:22.018Z,28.60
2018-09-06T03:02:51.235Z,32.03
2018-09-06T03:05:19.430Z,28.83
2018-09-06T03:07:47.811Z,31.90
2018-09-06T03:10:16.002Z,32.67
2018-09-06T03:12:44.359Z,29.80
2018-09-06T03:15:13.256Z,30.27
2018-09-06T03:17:41.604Z,31.33
2018-09-06T03:20:10.260Z,28.40
2018-09-06T03:22:38.600Z,30.30
2018-09-06T03:25:07.055Z,30.70
2018-09-06T03:27:35.305Z,29.97
2018-09-06T03:30:03.568Z,29.87
2018-09-06T03:32:32.177Z,32.10
2018-09-06T03:35:00.370Z,35.83
2018-09-06T03:37:28.665Z,31.23
2018-09-06T03:39:56.876Z,30.33
2018-09-06T03:42:25.199Z,33.93
2018-09-06T03:44:53.552Z,35.40
2018-09-06T03:47:21.760Z,34.57
2018-09-06T03:49:50.012Z,35.43
2018-09-06T03:52:18.240Z,40.43
2018-09-06T03:54:46.436Z,35.97
2018-09-06T03:57:14.667Z,40.17
2018-09-06T03:59:42.884Z,37.43
2018-09-06T04:02:11.148Z,36.37
2018-09-06T04:06:58.511Z,37.17
2018-09-06T04:09:26.787Z,39.93
2018-09-06T04:11:55.103Z,32.13
2018-09-06T04:14:23.784Z,31.87
2018-09-06T04:16:52.008Z,30.77
2018-09-06T04:19:20.315Z,31.07
2018-09-06T04:21:48.528Z,33.57
2018-09-06T04:24:16.802Z,30.50
2018-09-06T04:26:44.998Z,32.23
2018-09-06T04:29:13.220Z,34.33
2018-09-06T04:31:41.524Z,30.30
2018-09-06T04:34:09.873Z,31.77
2018-09-06T04:36:38.159Z,32.00
2018-09-06T04:39:08.274Z,31.53
2018-09-06T04:41:36.483Z,31.33
2018-09-06T04:44:04.843Z,34.10
2018-09-06T04:46:33.515Z,29.43
2018-09-06T04:49:01.933Z,32.30
2018-09-06T04:51:30.133Z,28.80
2018-09-06T04:53:58.351Z,30.97
2018-09-06T04:56:26.624Z,31.27
2018-09-06T04:58:54.924Z,30.70
2018-09-06T05:01:23.235Z,32.43
2018-09-06T05:03:52.108Z,31.03
2018-09-06T05:06:20.340Z,30.60
2018-09-06T05:08:48.531Z,31.77
2018-09-06T05:11:16.779Z,28.97
2018-09-06T05:13:44.980Z,39.03
2018-09-06T05:16:13.209Z,34.83
2018-09-06T05:18:41.436Z,33.77
2018-09-06T05:21:09.699Z,36.47
2018-09-06T05:23:37.979Z,34.23
2018-09-06T05:26:06.383Z,31.70
2018-09-06T05:28:34.616Z,34.87
2018-09-06T05:31:02.800Z,38.70
2018-09-06T05:33:31.052Z,41.33
2018-09-06T05:35:59.504Z,40.30
2018-09-06T05:38:27.650Z,41.00
2018-09-06T05:40:55.880Z,37.37
2018-09-06T05:43:24.145Z,38.73
2018-09-06T05:45:52.380Z,28.40
2018-09-06T05:48:20.613Z,24.67
2018-09-06T05:50:48.827Z,26.50
2018-09-06T05:53:17.045Z,28.40
2018-09-06T05:55:45.244Z,27.37
2018-09-06T05:58:13.450Z,26.23
2018-09-06T06:00:43.176Z,24.67
2018-09-06T06:03:11.665Z,27.63
2018-09-06T06:05:39.872Z,27.17
2018-09-06T06:08:19.422Z,29.40
2018-09-06T06:10:47.668Z,34.07
2018-09-06T06:13:15.868Z,29.70
2018-09-06T06:15:44.073Z,31.83
2018-09-06T06:18:12.319Z,32.77
2018-09-06T06:20:40.872Z,40.07
2018-09-06T06:23:09.108Z,39.07
2018-09-06T06:25:37.319Z,37.57
2018-09-06T06:28:05.574Z,40.60
2018-09-06T06:30:33.784Z,41.13
2018-09-06T06:33:02.021Z,42.27
2018-09-06T06:35:30.336Z,41.60
2018-09-06T06:37:58.580Z,39.77
2018-09-06T06:40:26.784Z,38.77
2018-09-06T06:42:55.052Z,40.70
2018-09-06T06:45:23.281Z,40.67
2018-09-06T06:47:51.476Z,35.80
2018-09-06T06:50:19.754Z,35.97
2018-09-06T06:52:47.949Z,37.70
2018-09-06T06:55:16.532Z,36.33
2018-09-06T06:57:44.816Z,32.40
2018-09-06T07:00:13.083Z,37.07
2018-09-06T07:02:41.289Z,33.43
2018-09-06T07:05:09.499Z,35.97
2018-09-06T07:07:38.533Z,35.50
2018-09-06T07:10:06.819Z,37.47
2018-09-06T07:12:35.047Z,32.63
2018-09-06T07:15:03.271Z,39.57
2018-09-06T07:17:31.483Z,42.73
2018-09-06T07:19:59.708Z,40.17
2018-09-06T07:22:27.919Z,42.03
2018-09-06T07:24:56.210Z,40.67
2018-09-06T07:27:24.498Z,38.67
2018-09-06T07:29:52.683Z,36.83
2018-09-06T07:32:21.020Z,37.10
2018-09-06T07:34:49.272Z,39.93
2018-09-06T07:37:17.477Z,36.47
2018-09-06T07:39:45.715Z,39.17
2018-09-06T07:42:13.951Z,34.20
2018-09-06T07:44:42.204Z,37.80
2018-09-06T07:47:10.405Z,37.20
2018-09-06T07:49:38.627Z,30.70
2018-09-06T07:52:06.911Z,26.63
2018-09-06T07:54:35.091Z,24.53
2018-09-06T07:57:03.362Z,25.90
2018-09-06T07:59:31.563Z,23.00
2018-09-06T08:01:59.786Z,23.33
2018-09-06T08:04:27.998Z,23.70
2018-09-06T08:06:56.196Z,21.47
2018-09-06T08:09:24.399Z,20.00
2018-09-06T08:11:52.634Z,22.20
2018-09-06T08:14:20.832Z,24.90
2018-09-06T08:16:49.065Z,17.53
2018-09-06T08:19:17.292Z,20.27
2018-09-06T08:21:45.518Z,17.00
2018-09-06T08:24:13.800Z,18.57
2018-09-06T08:26:41.916Z,18.40
2018-09-06T08:29:10.164Z,19.40
2018-09-06T08:31:38.360Z,18.23
2018-09-06T08:34:06.586Z,16.97
2018-09-06T08:36:34.815Z,19.10
2018-09-06T08:39:03.164Z,19.43
2018-09-06T08:41:31.385Z,18.47
2018-09-06T08:43:59.622Z,20.93
2018-09-06T08:46:27.850Z,22.20
2018-09-06T08:48:56.058Z,20.77
2018-09-06T08:51:24.263Z,19.60
2018-09-06T08:53:52.554Z,13.87
2018-09-06T08:56:20.753Z,15.30
2018-09-06T08:58:48.988Z,14.17
2018-09-06T09:01:22.676Z,14.03
2018-09-06T09:03:50.900Z,14.30
2018-09-06T09:06:19.132Z,16.87
2018-09-06T09:08:47.404Z,13.93
2018-09-06T09:11:15.635Z,14.43
2018-09-06T09:13:43.824Z,16.40
2018-09-06T09:16:12.064Z,13.67
2018-09-06T09:18:40.271Z,13.83
2018-09-06T09:21:08.532Z,16.93
2018-09-06T09:23:36.919Z,13.97
2018-09-06T09:26:05.415Z,13.50
2018-09-06T09:28:33.612Z,13.90
2018-09-06T09:31:01.807Z,14.63
2018-09-06T09:33:30.064Z,16.10
2018-09-06T09:35:58.341Z,14.23
2018-09-06T09:38:26.503Z,13.23
2018-09-06T09:40:54.679Z,16.40
2018-09-06T09:43:22.934Z,13.70
2018-09-06T09:45:51.127Z,12.93
2018-09-06T09:48:19.381Z,12.63
2018-09-06T09:53:15.111Z,14.83
2018-09-06T09:55:43.401Z,12.73
2018-09-06T09:58:11.637Z,15.00
2018-09-06T10:00:41.131Z,14.93
2018-09-06T10:03:14.795Z,14.63
2018-09-06T10:05:49.276Z,13.80
2018-09-06T10:08:22.852Z,13.20
2018-09-06T10:10:51.104Z,16.23
2018-09-06T10:13:19.345Z,11.80
2018-09-06T10:15:48.175Z,11.87
2018-09-06T10:18:16.411Z,13.97
2018-09-06T10:20:44.616Z,12.60
2018-09-06T10:23:12.829Z,12.83
2018-09-06T10:25:41.148Z,12.87
2018-09-06T10:28:09.361Z,10.73
2018-09-06T10:30:37.591Z,10.83
2018-09-06T10:33:05.934Z,12.60
2018-09-06T10:35:34.248Z,13.53
2018-09-06T10:38:02.604Z,14.23
2018-09-06T10:40:30.795Z,13.30
2018-09-06T10:42:59.154Z,13.87
2018-09-06T10:45:27.436Z,15.57
2018-09-06T10:47:55.644Z,13.73
2018-09-06T10:50:23.875Z,11.50
2018-09-06T10:52:52.136Z,12.83
2018-09-06T10:55:20.547Z,13.63
2018-09-06T10:57:48.743Z,10.53
2018-09-06T11:00:17.008Z,12.70
2018-09-06T11:02:45.859Z,13.80
2018-09-06T11:05:14.120Z,13.53
2018-09-06T11:07:42.341Z,12.83
2018-09-06T11:10:10.585Z,14.00
2018-09-06T11:12:38.839Z,12.83
2018-09-06T11:15:07.072Z,11.50
2018-09-06T11:17:35.279Z,14.63
2018-09-06T11:20:03.551Z,13.43
2018-09-06T11:22:32.025Z,12.80
2018-09-06T11:25:00.284Z,9.13
2018-09-06T11:27:28.533Z,8.53
2018-09-06T11:29:56.736Z,7.27
2018-09-06T11:32:24.937Z,8.43
2018-09-06T11:34:53.161Z,8.87
2018-09-06T11:37:21.387Z,8.97
2018-09-06T11:39:49.602Z,8.20
2018-09-06T11:42:17.816Z,9.20
2018-09-06T11:44:46.049Z,10.13
2018-09-06T11:47:14.289Z,8.97
2018-09-06T11:49:42.474Z,8.60
2018-09-06T11:52:10.756Z,8.83
2018-09-06T11:54:39.008Z,9.83
2018-09-06T11:57:07.229Z,8.87
2018-09-06T11:59:35.432Z,8.63
2018-09-06T12:02:03.704Z,9.30
2018-09-06T12:04:31.968Z,7.77
2018-09-06T12:07:00.172Z,8.67
2018-09-06T12:09:28.368Z,10.13
2018-09-06T12:11:56.615Z,8.53
2018-09-06T12:14:24.856Z,9.33
2018-09-06T12:16:53.125Z,9.23
2018-09-06T12:19:21.493Z,9.40
2018-09-06T12:21:49.744Z,9.37
2018-09-06T12:24:17.968Z,9.47
2018-09-06T12:26:46.192Z,9.23
2018-09-06T12:29:14.423Z,9.93
2018-09-06T12:34:05.892Z,10.27
2018-09-06T12:36:34.080Z,10.90
2018-09-06T12:39:02.528Z,10.30
2018-09-06T12:41:30.793Z,12.23
2018-09-06T12:43:59.056Z,9.77
2018-09-06T12:46:27.278Z,8.87
2018-09-06T12:48:55.537Z,8.47
2018-09-06T12:51:23.787Z,10.53
2018-09-06T12:53:52.068Z,8.97
2018-09-06T12:56:20.279Z,11.20
2018-09-06T12:58:48.505Z,9.83
2018-09-06T13:01:16.748Z,11.93
2018-09-06T13:03:44.940Z,9.35
2018-09-06T13:06:13.163Z,9.25
2018-09-06T13:08:41.400Z,8.98
2018-09-06T13:11:09.635Z,9.03
2018-09-06T13:13:37.857Z,8.85
2018-09-06T13:16:06.384Z,9.28
2018-09-06T13:18:34.653Z,10.13
2018-09-06T13:21:02.827Z,8.88
2018-09-06T13:23:32.136Z,7.67
2018-09-06T13:26:00.356Z,9.78
2018-09-06T13:28:28.796Z,7.40
2018-09-06T13:30:57.149Z,10.30
2018-09-06T13:33:25.399Z,9.85
2018-09-06T13:35:53.739Z,8.60
2018-09-06T13:38:21.967Z,7.97
2018-09-06T13:40:50.289Z,8.20
2018-09-06T13:43:19.089Z,6.90
2018-09-06T13:45:47.423Z,7.43
2018-09-06T13:48:15.891Z,6.33
2018-09-06T13:50:44.184Z,7.27
2018-09-06T13:53:12.371Z,5.62
2018-09-06T13:55:40.647Z,5.60
2018-09-06T13:58:08.912Z,6.17
2018-09-06T14:00:37.224Z,5.73
2018-09-06T14:03:05.510Z,5.83
2018-09-06T14:05:33.704Z,6.90
2018-09-06T14:08:01.908Z,5.37
2018-09-06T14:10:30.129Z,4.42
2018-09-06T14:12:58.340Z,5.40
2018-09-06T14:15:26.568Z,6.87
2018-09-06T14:17:54.764Z,5.50
2018-09-06T14:20:22.992Z,8.18
2018-09-06T14:22:51.220Z,4.72
2018-09-06T14:25:19.477Z,6.17
2018-09-06T14:27:47.688Z,4.92
2018-09-06T14:30:15.929Z,5.67
2018-09-06T14:32:44.183Z,5.45
2018-09-06T14:35:12.487Z,4.65
2018-09-06T14:37:40.681Z,5.70
2018-09-06T14:40:09.155Z,4.33
2018-09-06T14:42:37.416Z,3.20
2018-09-06T14:45:06.028Z,4.10
2018-09-06T14:47:34.259Z,5.30
2018-09-06T14:50:02.484Z,5.03
2018-09-06T14:52:30.712Z,3.55
2018-09-06T14:54:58.972Z,4.33
2018-09-06T14:57:27.217Z,4.15
2018-09-06T14:59:55.445Z,4.03
2018-09-06T15:02:23.634Z,5.12
2018-09-06T15:04:51.864Z,4.70
2018-09-06T15:07:20.082Z,3.55
2018-09-06T15:09:48.312Z,3.97
2018-09-06T15:12:16.548Z,4.40
2018-09-06T15:14:45.303Z,4.03
2018-09-06T15:17:13.565Z,4.50
2018-09-06T15:19:41.754Z,6.53
2018-09-06T15:22:09.976Z,5.67
2018-09-06T15:24:38.212Z,3.80
2018-09-06T15:27:06.459Z,16.37
2018-09-06T15:29:34.644Z,8.80
2018-09-06T15:32:02.873Z,4.83
2018-09-06T15:34:31.103Z,6.77
2018-09-06T15:36:59.308Z,9.17
2018-09-06T15:39:27.528Z,4.83
2018-09-06T15:41:55.748Z,6.27
2018-09-06T15:44:23.983Z,6.77
2018-09-06T15:46:52.205Z,5.13
2018-09-06T15:49:20.468Z,6.50
2018-09-06T15:51:48.733Z,9.30
2018-09-06T15:54:17.199Z,10.63
2018-09-06T15:56:45.464Z,15.30
2018-09-06T15:59:13.701Z,13.23
2018-09-06T16:01:41.933Z,13.72
2018-09-06T16:04:10.136Z,15.10
2018-09-06T16:06:38.343Z,15.10
2018-09-06T16:09:06.853Z,14.77
2018-09-06T16:11:35.128Z,22.17
2018-09-06T16:14:03.340Z,20.20
2018-09-06T16:16:31.552Z,13.93
2018-09-06T16:18:59.756Z,15.23
2018-09-06T16:21:28.024Z,16.73
2018-09-06T16:23:56.287Z,15.13
2018-09-06T16:26:24.499Z,15.27
2018-09-06T16:28:52.768Z,13.60
2018-09-06T16:31:20.996Z,14.50
2018-09-06T16:33:49.215Z,14.00
2018-09-06T16:36:17.451Z,13.83
2018-09-06T16:38:45.933Z,13.60
2018-09-06T16:41:14.165Z,14.93
2018-09-06T16:43:42.399Z,15.13
2018-09-06T16:46:10.721Z,16.70
2018-09-06T16:48:39.000Z,13.50
2018-09-06T16:51:07.215Z,13.43
2018-09-06T16:53:35.492Z,18.03
2018-09-06T16:56:03.733Z,14.80
2018-09-06T16:58:31.980Z,19.07
2018-09-06T17:01:00.235Z,17.83
2018-09-06T17:03:28.417Z,18.13
2018-09-06T17:05:56.614Z,19.20
2018-09-06T17:08:24.843Z,22.83
2018-09-06T17:10:53.062Z,17.17
2018-09-06T17:13:21.327Z,15.90
2018-09-06T17:15:49.545Z,18.50
2018-09-06T17:18:17.785Z,20.87
2018-09-06T17:20:46.056Z,24.13
2018-09-06T17:23:14.268Z,13.23
2018-09-06T17:25:42.569Z,14.13
2018-09-06T17:28:10.796Z,13.77
2018-09-06T17:30:39.020Z,15.00
2018-09-06T17:33:07.282Z,17.43
2018-09-06T17:35:35.500Z,13.63
2018-09-06T17:38:03.731Z,17.60
2018-09-06T17:40:31.952Z,18.97
2018-09-06T17:43:00.193Z,20.43
2018-09-06T17:45:28.461Z,19.47
2018-09-06T17:47:56.699Z,15.47
2018-09-06T17:50:24.934Z,15.73
2018-09-06T17:52:53.169Z,16.10
2018-09-06T17:55:21.416Z,17.33
2018-09-06T17:57:49.664Z,17.33
2018-09-06T18:00:17.924Z,21.23
2018-09-06T18:02:46.500Z,20.43
2018-09-06T18:05:14.724Z,19.83
2018-09-06T18:07:42.944Z,20.77
2018-09-06T18:10:11.156Z,14.63
2018-09-06T18:12:39.379Z,18.23
2018-09-06T18:15:07.822Z,18.27
2018-09-06T18:17:36.128Z,18.00
2018-09-06T18:20:04.603Z,20.43
2018-09-06T18:22:32.922Z,20.17
2018-09-06T18:25:01.264Z,22.70
2018-09-06T18:27:29.510Z,20.83
2018-09-06T18:29:57.727Z,14.83
2018-09-06T18:32:25.975Z,17.93
2018-09-06T18:34:54.280Z,20.60
2018-09-06T18:37:22.488Z,20.40
2018-09-06T18:39:50.840Z,21.63
2018-09-06T18:42:19.096Z,21.37
2018-09-06T18:44:47.331Z,26.30
2018-09-06T18:47:15.897Z,30.80
2018-09-06T18:49:44.162Z,29.97
2018-09-06T18:52:12.331Z,26.57
2018-09-06T18:54:40.536Z,27.97
2018-09-06T18:57:08.751Z,24.77
2018-09-06T18:59:37.002Z,26.77
2018-09-06T19:02:05.310Z,28.00
2018-09-06T19:04:33.451Z,28.67
2018-09-06T19:07:01.677Z,32.83
2018-09-06T19:09:29.880Z,29.00
2018-09-06T19:11:58.092Z,28.40
2018-09-06T19:14:26.352Z,29.63
2018-09-06T19:16:54.592Z,32.43
2018-09-06T19:19:22.858Z,35.23
2018-09-06T19:21:51.072Z,40.60
2018-09-06T19:24:19.306Z,37.57
2018-09-06T19:26:47.542Z,36.40
2018-09-06T19:29:15.894Z,38.80
2018-09-06T19:31:44.137Z,41.47
2018-09-06T19:34:12.316Z,32.57
2018-09-06T19:36:40.524Z,31.33
2018-09-06T19:39:10.855Z,34.37
2018-09-06T19:41:39.015Z,31.27
2018-09-06T19:44:07.275Z,25.70
2018-09-06T19:46:35.551Z,22.97
2018-09-06T19:49:03.795Z,21.53
2018-09-06T19:51:32.022Z,22.90
2018-09-06T19:54:00.584Z,24.20
2018-09-06T19:56:28.795Z,22.90
2018-09-06T19:58:57.015Z,23.67
2018-09-06T20:01:25.251Z,21.70
2018-09-06T20:03:53.495Z,25.40
2018-09-06T20:06:21.811Z,25.17
2018-09-06T20:08:50.043Z,26.93
2018-09-06T20:11:18.303Z,25.47
2018-09-06T20:13:46.525Z,27.23
2018-09-06T20:16:14.874Z,24.90
2018-09-06T20:18:43.088Z,28.90
2018-09-06T20:21:11.607Z,29.57
2018-09-06T20:23:39.842Z,30.77
2018-09-06T20:26:08.085Z,29.03
2018-09-06T20:28:36.389Z,27.70
2018-09-06T20:31:04.728Z,28.67
2018-09-06T20:33:33.145Z,27.83
2018-09-06T20:36:01.316Z,23.27
2018-09-06T20:38:29.617Z,24.23
2018-09-06T20:40:57.831Z,26.57
2018-09-06T20:43:26.117Z,22.43
2018-09-06T20:45:54.486Z,20.33
2018-09-06T20:48:22.680Z,23.30
2018-09-06T20:50:50.919Z,22.53
2018-09-06T20:53:19.225Z,18.70
2018-09-06T20:55:47.608Z,21.13
2018-09-06T20:58:15.848Z,22.67
2018-09-06T21:00:44.082Z,20.87
2018-09-06T21:03:12.296Z,22.00
2018-09-06T21:05:40.517Z,24.63
2018-09-06T21:08:08.739Z,23.23
2018-09-06T21:10:36.967Z,22.73
2018-09-06T21:13:05.197Z,27.17
2018-09-06T21:15:33.406Z,27.23
2018-09-06T21:18:01.598Z,24.83
2018-09-06T21:20:29.816Z,24.57
2018-09-06T21:22:58.084Z,24.80
2018-09-06T21:25:26.328Z,23.97
2018-09-06T21:27:54.642Z,28.10
2018-09-06T21:30:22.860Z,25.30
2018-09-06T21:32:51.060Z,24.57
2018-09-06T21:35:19.281Z,24.73
2018-09-06T21:37:47.631Z,25.27
2018-09-06T21:40:15.821Z,25.90
2018-09-06T21:42:44.107Z,27.27
2018-09-06T21:45:12.311Z,26.20
2018-09-06T21:47:40.507Z,23.27
2018-09-06T21:50:08.750Z,30.07
2018-09-06T21:52:36.972Z,30.40
2018-09-06T21:55:05.448Z,30.37
2018-09-06T21:57:33.676Z,22.97
2018-09-06T22:00:01.972Z,23.70
2018-09-06T22:02:35.576Z,22.97
2018-09-06T22:05:03.807Z,24.57
2018-09-06T22:07:32.049Z,21.33
2018-09-06T22:10:00.243Z,21.43
2018-09-06T22:12:28.469Z,23.53
2018-09-06T22:14:56.824Z,22.10
2018-09-06T22:17:25.043Z,25.53
2018-09-06T22:19:53.235Z,24.23
2018-09-06T22:22:21.479Z,24.80
2018-09-06T22:24:49.730Z,26.47
2018-09-06T22:27:17.936Z,24.60
2018-09-06T22:29:46.148Z,25.03
2018-09-06T22:32:14.372Z,25.60
2018-09-06T22:34:42.602Z,27.80
2018-09-06T22:37:10.807Z,28.33
2018-09-06T22:39:39.032Z,25.77
2018-09-06T22:42:07.240Z,20.97
2018-09-06T22:44:35.556Z,25.53
2018-09-06T22:47:03.784Z,25.10
2018-09-06T22:49:31.972Z,22.90
2018-09-06T22:52:00.198Z,25.00
2018-09-06T22:54:28.423Z,22.00
2018-09-06T22:56:56.657Z,19.00
2018-09-06T22:59:24.911Z,20.63
2018-09-06T23:01:53.171Z,22.60
2018-09-06T23:04:21.403Z,21.70
2018-09-06T23:06:49.639Z,22.70
2018-09-06T23:09:17.899Z,23.50
2018-09-06T23:11:46.140Z,20.30
2018-09-06T23:14:14.355Z,22.93
2018-09-06T23:16:42.556Z,21.30
2018-09-06T23:19:10.774Z,22.43
2018-09-06T23:21:39.006Z,22.80
2018-09-06T23:24:07.516Z,25.50
2018-09-06T23:26:35.724Z,22.43
2018-09-06T23:29:04.024Z,21.77
2018-09-06T23:31:32.271Z,22.07
2018-09-06T23:34:00.468Z,24.10
2018-09-06T23:36:29.024Z,29.23
2018-09-06T23:38:57.244Z,32.80
2018-09-06T23:41:25.557Z,29.33
2018-09-06T23:43:53.724Z,33.83
2018-09-06T23:46:21.959Z,32.30
2018-09-06T23:48:50.216Z,36.00
2018-09-06T23:51:18.436Z,33.87
2018-09-06T23:53:46.667Z,34.37
2018-09-06T23:56:14.884Z,26.63
2018-09-06T23:58:43.076Z,31.37
